createdAt,value
2016-06-06T13:03:49.125Z,27.46
2016-06-06T13:04:48.846Z,27.36
2016-06-06T13:05:49.022Z,27.35
2016-06-06T13:06:49.852Z,27.41
2016-06-06T13:07:48.729Z,27.42
2016-06-06T13:08:48.671Z,27.41
2016-06-06T13:09:49.173Z,27.29
2016-06-06T13:10:54.941Z,27.26
2016-06-06T13:11:48.521Z,27.35
2016-06-06T13:12:48.962Z,27.31
2016-06-06T13:13:54.762Z,27.28
2016-06-06T13:14:49.390Z,27.32
2016-06-06T13:15:49.142Z,27.28
2016-06-06T13:16:54.629Z,27.21
2016-06-06T13:17:48.584Z,27.33
2016-06-06T13:18:48.369Z,27.38
2016-06-06T13:19:48.465Z,27.41
2016-06-06T13:20:48.468Z,27.36
2016-06-06T13:21:48.877Z,27.29
2016-06-06T13:22:48.661Z,27.42
2016-06-06T13:23:50.148Z,27.28
2016-06-06T13:24:55.338Z,27.33
2016-06-06T13:25:54.559Z,27.33
2016-06-06T13:26:48.562Z,27.32
2016-06-06T13:27:55.252Z,27.2
2016-06-06T13:28:54.692Z,27.24
2016-06-06T13:29:48.711Z,27.29
2016-06-06T13:30:48.729Z,27.33
2016-06-06T13:31:54.575Z,27.31
2016-06-06T13:32:54.953Z,27.31
2016-06-06T13:34:02.471Z,27.33
2016-06-06T13:34:54.396Z,27.23
2016-06-06T13:35:48.258Z,27.24
2016-06-06T13:36:51.527Z,27.24
2016-06-06T13:37:54.623Z,27.21
2016-06-06T13:38:54.673Z,27.23
2016-06-06T13:39:51.238Z,27.24
2016-06-06T13:40:51.146Z,27.23
2016-06-06T13:41:51.134Z,27.35
2016-06-06T13:42:51.089Z,27.19
2016-06-06T13:43:48.296Z,27.21
2016-06-06T13:44:52.065Z,27.28
2016-06-06T13:45:48.192Z,27.19
2016-06-06T13:46:51.225Z,27.2
2016-06-06T13:47:51.041Z,27.29
2016-06-06T13:48:51.418Z,27.17
2016-06-06T13:49:51.217Z,27.23
2016-06-06T13:50:52.126Z,27.16
2016-06-06T13:51:51.286Z,27.11
2016-06-06T13:52:51.820Z,27.04
2016-06-06T13:53:51.181Z,27.16
2016-06-06T13:54:51.106Z,27.04
2016-06-06T13:55:48.969Z,27.01
2016-06-06T13:56:51.471Z,27.06
2016-06-06T13:57:50.927Z,27.04
2016-06-06T13:58:50.944Z,26.95
2016-06-06T13:59:51.057Z,26.96
2016-06-06T14:00:51.310Z,26.94
2016-06-06T14:01:49.453Z,26.94
2016-06-06T14:02:51.206Z,26.91
2016-06-06T14:03:50.833Z,26.94
2016-06-06T14:04:52.571Z,26.95
2016-06-06T14:05:54.621Z,26.86
2016-06-06T14:06:50.764Z,26.89
2016-06-06T14:07:50.860Z,26.96
2016-06-06T14:08:51.144Z,26.83
2016-06-06T14:09:48.474Z,26.86
2016-06-06T14:10:55.540Z,26.81
2016-06-06T14:12:06.840Z,26.81
2016-06-06T14:12:50.046Z,26.77
2016-06-06T14:13:50.079Z,26.72
2016-06-06T14:15:51.351Z,26.69
2016-06-06T14:16:48.119Z,26.68
2016-06-06T14:17:48.668Z,26.68
2016-06-06T14:18:50.561Z,26.64
2016-06-06T14:19:48.970Z,26.58
2016-06-06T14:20:48.020Z,26.58
2016-06-06T14:21:48.163Z,26.58
2016-06-06T14:22:48.619Z,26.64
2016-06-06T14:23:47.872Z,26.58
2016-06-06T14:24:48.297Z,26.52
2016-06-06T14:25:47.534Z,26.55
2016-06-06T14:26:48.380Z,26.57
2016-06-06T14:27:47.569Z,26.59
2016-06-06T14:28:52.073Z,26.46
2016-06-06T14:30:03.294Z,26.55
2016-06-06T14:30:48.796Z,26.39
2016-06-06T14:31:47.456Z,26.49
2016-06-06T14:32:47.364Z,26.36
2016-06-06T14:33:48.446Z,26.52
2016-06-06T14:34:47.713Z,26.42
2016-06-06T14:35:47.622Z,26.37
2016-06-06T14:36:47.469Z,26.31
2016-06-06T14:37:47.503Z,26.4
2016-06-06T14:38:47.584Z,26.39
2016-06-06T14:39:48.134Z,26.4
2016-06-06T14:40:47.574Z,26.28
2016-06-06T14:42:19.954Z,26.31
2016-06-06T14:42:47.641Z,26.35
2016-06-06T14:43:48.019Z,26.4
2016-06-06T14:44:54.897Z,26.37
2016-06-06T14:45:48.931Z,26.29
2016-06-06T14:46:47.840Z,26.29
2016-06-06T14:47:48.108Z,26.35
2016-06-06T14:48:47.690Z,26.29
2016-06-06T14:49:48.020Z,26.35
2016-06-06T14:50:48.006Z,26.36
2016-06-06T14:51:47.447Z,26.35
2016-06-06T14:52:47.231Z,26.39
2016-06-06T14:53:48.077Z,26.28
2016-06-06T14:54:47.689Z,26.4
2016-06-06T14:55:47.833Z,26.32
2016-06-06T14:56:47.758Z,26.32
2016-06-06T14:57:47.635Z,26.32
2016-06-06T14:58:47.248Z,26.28
2016-06-06T14:59:48.328Z,26.28
2016-06-06T15:00:47.737Z,26.36
2016-06-06T15:01:47.724Z,26.35
2016-06-06T15:02:47.633Z,26.28
2016-06-06T15:03:47.589Z,26.35
2016-06-06T15:04:47.419Z,26.35
2016-06-06T15:05:47.328Z,26.32
2016-06-06T15:06:48.644Z,26.32
2016-06-06T15:07:47.458Z,26.35
2016-06-06T15:08:47.259Z,26.32
2016-06-06T15:09:47.699Z,26.29
2016-06-06T15:10:47.451Z,26.27
2016-06-06T15:11:47.407Z,26.27
2016-06-06T15:12:48.129Z,26.28
2016-06-06T15:13:47.568Z,26.29
2016-06-06T15:14:47.368Z,26.37
2016-06-06T15:15:47.684Z,26.32
2016-06-06T15:16:47.014Z,26.36
2016-06-06T15:17:47.360Z,26.28
2016-06-06T15:18:47.520Z,26.35
2016-06-06T15:19:47.554Z,26.36
2016-06-06T15:20:47.073Z,26.4
2016-06-06T15:21:47.450Z,26.44
2016-06-06T15:22:47.374Z,26.36
2016-06-06T15:23:47.737Z,26.44
2016-06-06T15:24:47.271Z,26.35
2016-06-06T15:25:46.492Z,26.39
2016-06-06T15:26:46.838Z,26.49
2016-06-06T15:27:46.809Z,26.52
2016-06-06T15:28:46.344Z,26.49
2016-06-06T15:29:47.706Z,26.61
2016-06-06T15:30:47.740Z,26.59
2016-06-06T15:31:47.633Z,26.65
2016-06-06T15:32:46.511Z,26.57
2016-06-06T15:33:46.528Z,26.61
2016-06-06T15:34:46.439Z,26.61
2016-06-06T15:35:46.488Z,26.64
2016-06-06T15:36:46.506Z,26.68
2016-06-06T15:37:46.368Z,26.61
2016-06-06T15:38:46.417Z,26.69
2016-06-06T15:39:46.405Z,26.72
2016-06-06T15:40:46.407Z,26.73
2016-06-06T15:41:46.394Z,26.73
2016-06-06T15:42:47.490Z,26.72
2016-06-06T15:43:46.384Z,26.72
2016-06-06T15:44:47.137Z,26.8
2016-06-06T15:45:47.874Z,26.76
2016-06-06T15:46:46.502Z,26.77
2016-06-06T15:47:47.254Z,26.83
2016-06-06T15:48:46.648Z,26.81
2016-06-06T15:49:46.619Z,26.81
2016-06-06T15:50:46.482Z,26.91
2016-06-06T15:51:46.312Z,26.94
2016-06-06T15:52:46.237Z,26.91
2016-06-06T15:53:46.161Z,26.94
2016-06-06T15:54:46.179Z,26.94
2016-06-06T15:55:46.292Z,26.96
2016-06-06T15:56:46.450Z,27.02
2016-06-06T15:57:46.218Z,26.98
2016-06-06T15:58:46.112Z,26.96
2016-06-06T15:59:46.928Z,27.02
2016-06-06T16:00:46.367Z,27.05
2016-06-06T16:01:45.995Z,27.05
2016-06-06T16:02:46.014Z,27.11
2016-06-06T16:03:46.141Z,27.06
2016-06-06T16:04:46.003Z,27.17
2016-06-06T16:05:46.084Z,27.26
2016-06-06T16:06:45.930Z,27.26
2016-06-06T16:07:46.105Z,27.21
2016-06-06T16:08:45.936Z,27.29
2016-06-06T16:09:46.173Z,27.28
2016-06-06T16:10:45.878Z,27.35
2016-06-06T16:11:45.913Z,27.29
2016-06-06T16:12:46.088Z,27.36
2016-06-06T16:13:46.012Z,27.39
2016-06-06T16:14:47.343Z,27.39
2016-06-06T16:15:46.080Z,27.35
2016-06-06T16:16:46.019Z,27.42
2016-06-06T16:17:46.382Z,27.41
2016-06-06T16:18:45.854Z,27.46
2016-06-06T16:19:45.794Z,27.42
2016-06-06T16:20:45.718Z,27.39
2016-06-06T16:21:45.737Z,27.46
2016-06-06T16:22:45.802Z,27.5
2016-06-06T16:23:45.679Z,27.47
2016-06-06T16:24:45.729Z,27.38
2016-06-06T16:25:45.685Z,27.46
2016-06-06T16:26:45.640Z,27.47
2016-06-06T16:27:45.565Z,27.51
2016-06-06T16:28:45.677Z,27.48
2016-06-06T16:29:46.679Z,27.47
2016-06-06T16:30:45.651Z,27.48
2016-06-06T16:31:45.639Z,27.48
2016-06-06T16:32:45.625Z,27.46
2016-06-06T16:33:45.565Z,27.42
2016-06-06T16:34:45.537Z,27.51
2016-06-06T16:35:45.853Z,27.43
2016-06-06T16:36:45.605Z,27.43
2016-06-06T16:37:45.639Z,27.41
2016-06-06T16:38:46.111Z,27.46
2016-06-06T16:39:45.488Z,27.41
2016-06-06T16:40:48.600Z,27.41
2016-06-06T16:41:45.478Z,27.43
2016-06-06T16:42:45.657Z,27.48
2016-06-06T16:43:45.446Z,27.46
2016-06-06T16:44:45.438Z,27.48
2016-06-06T16:45:45.477Z,27.53
2016-06-06T16:46:45.516Z,27.54
2016-06-06T16:47:45.443Z,27.54
2016-06-06T16:48:45.525Z,27.57
2016-06-06T16:49:45.622Z,27.53
2016-06-06T16:50:45.502Z,27.59
2016-06-06T16:51:45.443Z,27.51
2016-06-06T16:52:45.932Z,27.57
2016-06-06T16:53:45.419Z,27.51
2016-06-06T16:54:45.517Z,27.53
2016-06-06T16:55:48.551Z,27.53
2016-06-06T16:56:45.430Z,27.54
2016-06-06T16:57:45.417Z,27.54
2016-06-06T16:58:45.451Z,27.57
2016-06-06T16:59:47.361Z,27.53
2016-06-06T17:00:45.755Z,27.53
2016-06-06T17:01:45.492Z,27.58
2016-06-06T17:02:45.448Z,27.54
2016-06-06T17:03:45.919Z,27.61
2016-06-06T17:04:45.437Z,27.53
2016-06-06T17:05:45.533Z,27.51
2016-06-06T17:06:45.506Z,27.57
2016-06-06T17:07:46.242Z,27.51
2016-06-06T17:08:45.511Z,27.48
2016-06-06T17:09:45.326Z,27.47
2016-06-06T17:10:45.203Z,27.47
2016-06-06T17:11:45.394Z,27.5
2016-06-06T17:12:45.350Z,27.54
2016-06-06T17:13:45.446Z,27.46
2016-06-06T17:14:46.152Z,27.5
2016-06-06T17:15:46.405Z,27.48
2016-06-06T17:16:45.219Z,27.48
2016-06-06T17:17:45.144Z,27.42
2016-06-06T17:18:45.366Z,27.42
2016-06-06T17:19:45.243Z,27.39
2016-06-06T17:20:45.199Z,27.31
2016-06-06T17:21:45.108Z,27.42
2016-06-06T17:22:45.252Z,27.36
2016-06-06T17:23:45.207Z,27.26
2016-06-06T17:24:45.241Z,27.29
2016-06-06T17:25:45.368Z,27.28
2016-06-06T17:26:45.121Z,27.23
2016-06-06T17:27:45.171Z,27.23
2016-06-06T17:28:45.095Z,27.19
2016-06-06T17:29:45.552Z,27.14
2016-06-06T17:30:44.773Z,27.21
2016-06-06T17:31:45.056Z,27.13
2016-06-06T17:32:48.435Z,27.14
2016-06-06T17:33:45.109Z,27.06
2016-06-06T17:34:45.080Z,27.06
2016-06-06T17:35:45.255Z,27.06
2016-06-06T17:36:48.102Z,27.06
2016-06-06T17:37:45.244Z,27.04
2016-06-06T17:38:45.404Z,27.04
2016-06-06T17:39:45.625Z,27.05
2016-06-06T17:40:45.033Z,27.05
2016-06-06T17:41:58.803Z,26.96
2016-06-06T17:42:44.789Z,27.01
2016-06-06T17:43:44.902Z,27.02
2016-06-06T17:44:46.513Z,27.05
2016-06-06T17:45:45.330Z,26.98
2016-06-06T17:46:44.863Z,26.98
2016-06-06T17:47:44.849Z,26.91
2016-06-06T17:48:45.072Z,26.98
2016-06-06T17:49:45.293Z,26.89
2016-06-06T17:50:44.826Z,26.94
2016-06-06T17:51:44.892Z,26.81
2016-06-06T17:52:45.629Z,26.81
2016-06-06T17:53:44.819Z,26.86
2016-06-06T17:54:45.150Z,26.8
2016-06-06T17:55:44.684Z,26.68
2016-06-06T17:56:44.781Z,26.79
2016-06-06T17:57:44.908Z,26.68
2016-06-06T17:58:44.582Z,26.72
2016-06-06T17:59:44.773Z,26.67
2016-06-06T18:00:44.604Z,26.74
2016-06-06T18:01:44.419Z,26.76
2016-06-06T18:02:44.828Z,26.67
2016-06-06T18:03:44.675Z,26.73
2016-06-06T18:04:47.598Z,26.61
2016-06-06T18:05:45.476Z,26.54
2016-06-06T18:06:47.870Z,26.62
2016-06-06T18:07:45.653Z,26.61
2016-06-06T18:08:47.875Z,26.58
2016-06-06T18:09:45.628Z,26.65
2016-06-06T18:10:47.505Z,26.61
2016-06-06T18:11:45.305Z,26.62
2016-06-06T18:12:47.792Z,26.59
2016-06-06T18:13:44.936Z,26.55
2016-06-06T18:14:45.125Z,26.55
2016-06-06T18:15:54.394Z,26.52
2016-06-06T18:16:47.866Z,26.47
2016-06-06T18:17:45.102Z,26.57
2016-06-06T18:18:44.886Z,26.52
2016-06-06T18:19:45.108Z,26.4
2016-06-06T18:20:48.080Z,26.39
2016-06-06T18:21:45.644Z,26.39
2016-06-06T18:22:45.819Z,26.4
2016-06-06T18:23:44.368Z,26.39
2016-06-06T18:24:45.403Z,26.39
2016-06-06T18:25:45.170Z,26.36
2016-06-06T18:26:45.986Z,26.36
2016-06-06T18:27:45.301Z,26.31
2016-06-06T18:28:44.398Z,26.32
2016-06-06T18:29:44.275Z,26.22
2016-06-06T18:30:45.076Z,26.12
2016-06-06T18:31:44.140Z,26.2
2016-06-06T18:32:44.908Z,26.25
2016-06-06T18:33:44.395Z,26.25
2016-06-06T18:34:44.414Z,26.21
2016-06-06T18:35:44.276Z,26.21
2016-06-06T18:36:44.169Z,26.2
2016-06-06T18:37:44.094Z,26.18
2016-06-06T18:38:44.081Z,26.15
2016-06-06T18:39:45.630Z,26.08
2016-06-06T18:40:44.570Z,26.05
2016-06-06T18:41:44.245Z,26.01
2016-06-06T18:42:44.154Z,26.01
2016-06-06T18:43:44.126Z,26.05
2016-06-06T18:44:44.800Z,26.04
2016-06-06T18:45:44.553Z,26.11
2016-06-06T18:46:44.446Z,26.02
2016-06-06T18:47:44.214Z,26.05
2016-06-06T18:48:44.421Z,25.98
2016-06-06T18:49:44.094Z,25.98
2016-06-06T18:50:44.457Z,25.98
2016-06-06T18:51:44.397Z,25.93
2016-06-06T18:52:44.369Z,26.05
2016-06-06T18:53:44.074Z,25.89
2016-06-06T18:54:44.248Z,25.87
2016-06-06T18:55:44.596Z,25.89
2016-06-06T18:56:44.285Z,25.91
2016-06-06T18:57:43.445Z,25.91
2016-06-06T18:58:44.073Z,25.87
2016-06-06T18:59:44.418Z,25.89
2016-06-06T19:00:44.498Z,25.86
2016-06-06T19:01:44.251Z,25.84
2016-06-06T19:02:44.317Z,25.83
2016-06-06T19:03:44.257Z,25.77
2016-06-06T19:04:44.150Z,25.79
2016-06-06T19:05:44.466Z,25.74
2016-06-06T19:06:44.265Z,25.77
2016-06-06T19:07:44.222Z,25.77
2016-06-06T19:08:44.177Z,25.69
2016-06-06T19:09:44.305Z,25.71
2016-06-06T19:10:44.823Z,25.69
2016-06-06T19:11:44.404Z,25.68
2016-06-06T19:12:44.531Z,25.68
2016-06-06T19:13:44.503Z,25.69
2016-06-06T19:14:44.036Z,25.72
2016-06-06T19:15:44.087Z,25.64
2016-06-06T19:16:45.292Z,25.64
2016-06-06T19:17:44.795Z,25.57
2016-06-06T19:18:44.297Z,25.56
2016-06-06T19:19:44.050Z,25.56
2016-06-06T19:20:43.428Z,25.53
2016-06-06T19:21:44.228Z,25.5
2016-06-06T19:22:42.480Z,25.53
2016-06-06T19:23:43.483Z,25.5
2016-06-06T19:24:43.313Z,25.49
2016-06-06T19:25:43.848Z,25.47
2016-06-06T19:26:43.273Z,25.47
2016-06-06T19:27:43.243Z,25.49
2016-06-06T19:28:43.371Z,25.44
2016-06-06T19:29:43.171Z,25.42
2016-06-06T19:30:43.190Z,25.53
2016-06-06T19:31:43.020Z,25.44
2016-06-06T19:32:43.164Z,25.44
2016-06-06T19:33:42.979Z,25.42
2016-06-06T19:34:44.278Z,25.42
2016-06-06T19:35:44.375Z,25.37
2016-06-06T19:36:43.190Z,25.32
2016-06-06T19:37:43.303Z,25.32
2016-06-06T19:38:42.805Z,25.32
2016-06-06T19:39:43.120Z,25.35
2016-06-06T19:40:42.670Z,25.32
2016-06-06T19:41:42.828Z,25.32
2016-06-06T19:42:42.706Z,25.31
2016-06-06T19:43:42.725Z,25.19
2016-06-06T19:44:43.289Z,25.19
2016-06-06T19:45:42.667Z,25.19
2016-06-06T19:46:42.623Z,25.2
2016-06-06T19:47:42.672Z,25.22
2016-06-06T19:48:42.535Z,25.12
2016-06-06T19:49:42.755Z,25.12
2016-06-06T19:50:42.555Z,25.09
2016-06-06T19:51:42.668Z,25.1
2016-06-06T19:53:42.532Z,25.07
2016-06-06T19:54:42.285Z,25.07
2016-06-06T19:55:42.429Z,25.05
2016-06-06T19:56:42.494Z,25
2016-06-06T19:57:42.402Z,24.97
2016-06-06T19:58:42.437Z,24.95
2016-06-06T19:59:42.361Z,24.98
2016-06-06T20:00:42.364Z,24.95
2016-06-06T20:01:42.445Z,24.95
2016-06-06T20:02:42.931Z,24.83
2016-06-06T20:03:42.465Z,24.92
2016-06-06T20:04:42.719Z,24.87
2016-06-06T20:05:43.627Z,24.87
2016-06-06T20:06:42.302Z,24.83
2016-06-06T20:07:42.648Z,24.8
2016-06-06T20:08:43.245Z,24.79
2016-06-06T20:09:42.638Z,24.64
2016-06-06T20:10:42.594Z,24.71
2016-06-06T20:11:42.347Z,24.76
2016-06-06T20:12:43.505Z,24.75
2016-06-06T20:13:43.774Z,24.67
2016-06-06T20:14:42.980Z,24.57
2016-06-06T20:15:42.841Z,24.53
2016-06-06T20:16:42.422Z,24.56
2016-06-06T20:17:42.660Z,24.57
2016-06-06T20:18:42.834Z,24.57
2016-06-06T20:19:43.118Z,24.53
2016-06-06T20:20:43.153Z,24.6
2016-06-06T20:21:41.981Z,24.54
2016-06-06T20:22:42.358Z,24.52
2016-06-06T20:23:42.126Z,24.47
2016-06-06T20:24:42.504Z,24.49
2016-06-06T20:25:42.194Z,24.44
2016-06-06T20:26:42.071Z,24.41
2016-06-06T20:27:42.246Z,24.39
2016-06-06T20:28:42.390Z,24.45
2016-06-06T20:29:42.096Z,24.41
2016-06-06T20:30:42.582Z,24.38
2016-06-06T20:31:41.898Z,24.34
2016-06-06T20:32:42.182Z,24.35
2016-06-06T20:33:41.841Z,24.42
2016-06-06T20:34:45.409Z,24.26
2016-06-06T20:35:43.676Z,24.32
2016-06-06T20:36:42.629Z,24.35
2016-06-06T20:37:42.929Z,24.27
2016-06-06T20:38:42.151Z,24.26
2016-06-06T20:39:44.859Z,24.29
2016-06-06T20:40:41.828Z,24.29
2016-06-06T20:41:42.050Z,24.27
2016-06-06T20:42:42.771Z,24.2
2016-06-06T20:43:44.995Z,24.27
2016-06-06T20:44:43.669Z,24.22
2016-06-06T20:45:42.528Z,24.17
2016-06-06T20:46:42.016Z,24.26
2016-06-06T20:47:44.631Z,24.2
2016-06-06T20:48:43.618Z,24.24
2016-06-06T20:49:45.667Z,24.13
2016-06-06T20:50:46.216Z,24.13
2016-06-06T20:51:44.454Z,24.16
2016-06-06T20:52:44.816Z,24.13
2016-06-06T20:54:41.991Z,24.14
2016-06-06T20:55:44.433Z,24.05
2016-06-06T20:56:42.074Z,24.16
2016-06-06T20:57:44.564Z,24.12
2016-06-06T20:58:41.814Z,24.05
2016-06-06T20:59:44.491Z,24.13
2016-06-06T21:00:44.479Z,24.08
2016-06-06T21:01:44.341Z,24.05
2016-06-06T21:02:42.138Z,24.02
2016-06-06T21:03:44.345Z,24.12
2016-06-06T21:04:44.504Z,24.01
2016-06-06T21:05:42.645Z,24.01
2016-06-06T21:06:55.542Z,24.05
2016-06-06T21:07:44.856Z,23.92
2016-06-06T21:08:44.781Z,24
2016-06-06T21:09:44.328Z,23.95
2016-06-06T21:10:44.409Z,23.94
2016-06-06T21:11:44.303Z,23.95
2016-06-06T21:12:44.305Z,23.98
2016-06-06T21:13:42.089Z,23.95
2016-06-06T21:14:41.342Z,23.9
2016-06-06T21:15:41.251Z,24.04
2016-06-06T21:16:41.112Z,23.92
2016-06-06T21:17:41.162Z,23.94
2016-06-06T21:18:41.399Z,23.95
2016-06-06T21:19:41.825Z,23.85
2016-06-06T21:20:44.513Z,23.83
2016-06-06T21:21:41.000Z,23.82
2016-06-06T21:22:41.066Z,23.83
2016-06-06T21:23:40.960Z,23.85
2016-06-06T21:24:41.040Z,23.82
2016-06-06T21:25:40.980Z,23.83
2016-06-06T21:26:40.968Z,23.83
2016-06-06T21:27:40.955Z,23.82
2016-06-06T21:28:44.551Z,23.85
2016-06-06T21:29:40.882Z,23.89
2016-06-06T21:30:40.916Z,23.86
2016-06-06T21:31:40.887Z,23.8
2016-06-06T21:32:40.859Z,23.77
2016-06-06T21:33:41.220Z,23.79
2016-06-06T21:34:40.848Z,23.8
2016-06-06T21:35:40.679Z,23.86
2016-06-06T21:36:41.120Z,23.72
2016-06-06T21:37:41.559Z,23.71
2016-06-06T21:38:40.781Z,23.75
2016-06-06T21:39:41.284Z,23.67
2016-06-06T21:40:40.896Z,23.65
2016-06-06T21:41:41.008Z,23.71
2016-06-06T21:42:40.714Z,23.62
2016-06-06T21:43:40.934Z,23.7
2016-06-06T21:44:40.656Z,23.68
2016-06-06T21:45:44.706Z,23.7
2016-06-06T21:46:40.567Z,23.65
2016-06-06T21:47:40.617Z,23.62
2016-06-06T21:48:40.636Z,23.62
2016-06-06T21:49:40.858Z,23.61
2016-06-06T21:50:40.938Z,23.65
2016-06-06T21:51:40.785Z,23.6
2016-06-06T21:52:40.538Z,23.53
2016-06-06T21:53:40.478Z,23.53
2016-06-06T21:54:40.418Z,23.55
2016-06-06T21:55:40.546Z,23.58
2016-06-06T21:56:40.438Z,23.57
2016-06-06T21:57:40.363Z,23.52
2016-06-06T21:58:40.335Z,23.46
2016-06-06T21:59:40.432Z,23.55
2016-06-06T22:00:40.918Z,23.46
2016-06-06T22:01:40.296Z,23.49
2016-06-06T22:02:40.955Z,23.52
2016-06-06T22:03:40.786Z,23.43
2016-06-06T22:04:41.148Z,23.53
2016-06-06T22:05:40.088Z,23.35
2016-06-06T22:06:40.356Z,23.39
2016-06-06T22:07:40.374Z,23.46
2016-06-06T22:08:40.284Z,23.4
2016-06-06T22:09:40.162Z,23.46
2016-06-06T22:10:40.164Z,23.35
2016-06-06T22:11:40.635Z,23.4
2016-06-06T22:12:40.560Z,23.42
2016-06-06T22:13:40.079Z,23.35
2016-06-06T22:14:40.393Z,23.31
2016-06-06T22:15:40.365Z,23.32
2016-06-06T22:16:40.056Z,23.32
2016-06-06T22:17:40.011Z,23.26
2016-06-06T22:18:40.638Z,23.26
2016-06-06T22:19:40.314Z,23.32
2016-06-06T22:20:40.034Z,23.31
2016-06-06T22:21:40.256Z,23.29
2016-06-06T22:22:40.227Z,23.26
2016-06-06T22:23:39.933Z,23.24
2016-06-06T22:24:40.639Z,23.24
2016-06-06T22:25:40.470Z,23.29
2016-06-06T22:26:39.847Z,23.31
2016-06-06T22:27:39.944Z,23.24
2016-06-06T22:28:40.899Z,23.15
2016-06-06T22:29:39.793Z,23.2
2016-06-06T22:30:39.811Z,23.17
2016-06-06T22:31:39.768Z,23.17
2016-06-06T22:32:39.927Z,23.04
2016-06-06T22:33:39.773Z,23.07
2016-06-06T22:34:39.807Z,23.07
2016-06-06T22:35:40.263Z,23.04
2016-06-06T22:36:40.062Z,23.12
2016-06-06T22:37:39.674Z,23.14
2016-06-06T22:38:39.740Z,23.11
2016-06-06T22:39:40.023Z,23.11
2016-06-06T22:40:39.698Z,23.15
2016-06-06T22:41:39.841Z,23.15
2016-06-06T22:42:40.047Z,23.11
2016-06-06T22:43:40.315Z,23.04
2016-06-06T22:44:39.583Z,23.01
2016-06-06T22:45:39.726Z,23.11
2016-06-06T22:46:40.495Z,23.04
2016-06-06T22:47:40.748Z,23.05
2016-06-06T22:48:39.470Z,22.97
2016-06-06T22:49:39.612Z,22.97
2016-06-06T22:50:40.708Z,22.92
2016-06-06T22:51:40.055Z,22.97
2016-06-06T22:52:39.417Z,22.9
2016-06-06T22:53:40.436Z,22.93
2016-06-06T22:54:39.345Z,22.9
2016-06-06T22:55:39.347Z,23.02
2016-06-06T22:56:40.897Z,22.92
2016-06-06T22:57:39.712Z,22.92
2016-06-06T22:58:39.309Z,22.92
2016-06-06T22:59:39.296Z,22.94
2016-06-06T23:00:39.360Z,22.89
2016-06-06T23:01:39.269Z,22.9
2016-06-06T23:02:39.226Z,22.86
2016-06-06T23:03:39.213Z,22.82
2016-06-06T23:04:39.169Z,22.87
2016-06-06T23:05:39.515Z,22.87
2016-06-06T23:06:39.190Z,22.84
2016-06-06T23:07:39.193Z,22.82
2016-06-06T23:08:39.164Z,22.84
2016-06-06T23:09:39.401Z,22.84
2016-06-06T23:10:39.122Z,22.8
2016-06-06T23:11:39.046Z,22.82
2016-06-06T23:12:39.034Z,22.82
2016-06-06T23:13:39.021Z,22.78
2016-06-06T23:14:38.993Z,22.71
2016-06-06T23:15:38.995Z,22.74
2016-06-06T23:16:38.967Z,22.8
2016-06-06T23:17:39.031Z,22.74
2016-06-06T23:18:39.176Z,22.69
2016-06-06T23:19:38.912Z,22.74
2016-06-06T23:20:39.070Z,22.77
2016-06-06T23:21:38.902Z,22.72
2016-06-06T23:22:38.873Z,22.69
2016-06-06T23:23:38.845Z,22.75
2016-06-06T23:24:38.816Z,22.75
2016-06-06T23:25:38.803Z,22.74
2016-06-06T23:26:38.791Z,22.74
2016-06-06T23:27:38.621Z,22.65
2016-06-06T23:28:38.764Z,22.67
2016-06-06T23:29:38.766Z,22.77
2016-06-06T23:30:38.707Z,22.65
2016-06-06T23:31:38.819Z,22.64
2016-06-06T23:32:38.666Z,22.72
2016-06-06T23:33:38.684Z,22.6
2016-06-06T23:34:38.624Z,22.56
2016-06-06T23:35:38.815Z,22.59
2016-06-06T23:36:38.630Z,22.59
2016-06-06T23:37:38.585Z,22.68
2016-06-06T23:38:38.573Z,22.59
2016-06-06T23:39:38.544Z,22.59
2016-06-06T23:40:38.531Z,22.59
2016-06-06T23:41:38.502Z,22.57
2016-06-06T23:42:38.505Z,22.56
2016-06-06T23:43:38.476Z,22.59
2016-06-06T23:44:39.120Z,22.53
2016-06-06T23:45:38.451Z,22.39
2016-06-06T23:46:38.423Z,22.47
2016-06-06T23:47:38.815Z,22.59
2016-06-06T23:48:38.381Z,22.56
2016-06-06T23:49:38.383Z,22.41
2016-06-06T23:50:38.370Z,22.47
2016-06-06T23:51:38.936Z,22.46
2016-06-06T23:52:38.392Z,22.46
2016-06-06T23:53:38.301Z,22.54
2016-06-06T23:54:38.303Z,22.54
2016-06-06T23:55:38.384Z,22.5
2016-06-06T23:56:38.246Z,22.39
2016-06-06T23:57:38.420Z,22.39
2016-06-06T23:58:38.377Z,22.41
2016-06-06T23:59:38.864Z,22.37
